sensor_id;sensor_type;location;lat;lon;timestamp;temperature;humidity
14154;DHT22;7157;53.144;7.570;2023-07-08T00:01:53;18.58;69.07
14154;DHT22;7157;53.144;7.570;2023-07-08T00:11:58;18.54;69.39
14154;DHT22;7157;53.144;7.570;2023-07-08T00:22:01;18.55;69.15
14154;DHT22;7157;53.144;7.570;2023-07-08T00:32:11;18.46;69.70
14154;DHT22;7157;53.144;7.570;2023-07-08T00:42:24;18.28;70.97
14154;DHT22;7157;53.144;7.570;2023-07-08T00:52:29;18.29;69.94
14154;DHT22;7157;53.144;7.570;2023-07-08T01:02:34;18.14;70.94
14154;DHT22;7157;53.144;7.570;2023-07-08T01:12:43;18.03;71.71
14154;DHT22;7157;53.144;7.570;2023-07-08T01:22:49;17.84;73.60
14154;DHT22;7157;53.144;7.570;2023-07-08T01:32:57;17.76;73.07
14154;DHT22;7157;53.144;7.570;2023-07-08T01:43:04;17.63;73.92
14154;DHT22;7157;53.144;7.570;2023-07-08T01:53:13;17.41;75.34
14154;DHT22;7157;53.144;7.570;2023-07-08T02:03:17;17.34;75.89
14154;DHT22;7157;53.144;7.570;2023-07-08T02:13:21;17.28;75.94
14154;DHT22;7157;53.144;7.570;2023-07-08T02:23:27;17.14;77.35
14154;DHT22;7157;53.144;7.570;2023-07-08T02:33:31;17.18;76.37
14154;DHT22;7157;53.144;7.570;2023-07-08T02:43:36;17.03;77.74
14154;DHT22;7157;53.144;7.570;2023-07-08T02:53:39;16.92;78.10
14154;DHT22;7157;53.144;7.570;2023-07-08T03:03:43;16.87;78.51
14154;DHT22;7157;53.144;7.570;2023-07-08T03:13:46;16.87;78.11
14154;DHT22;7157;53.144;7.570;2023-07-08T03:23:51;16.90;77.91
14154;DHT22;7157;53.144;7.570;2023-07-08T03:33:54;16.84;78.28
14154;DHT22;7157;53.144;7.570;2023-07-08T03:43:59;16.77;79.19
14154;DHT22;7157;53.144;7.570;2023-07-08T03:54:02;16.78;79.37
14154;DHT22;7157;53.144;7.570;2023-07-08T04:04:08;16.86;79.77
14154;DHT22;7157;53.144;7.570;2023-07-08T04:14:13;17.08;78.69
14154;DHT22;7157;53.144;7.570;2023-07-08T04:24:17;17.22;78.61
14154;DHT22;7157;53.144;7.570;2023-07-08T04:34:21;17.39;78.20
14154;DHT22;7157;53.144;7.570;2023-07-08T04:44:25;17.62;77.56
14154;DHT22;7157;53.144;7.570;2023-07-08T04:54:29;17.82;77.32
14154;DHT22;7157;53.144;7.570;2023-07-08T05:04:33;18.10;76.75
14154;DHT22;7157;53.144;7.570;2023-07-08T05:14:38;18.36;76.86
14154;DHT22;7157;53.144;7.570;2023-07-08T05:24:42;18.70;76.24
14154;DHT22;7157;53.144;7.570;2023-07-08T05:34:48;19.03;75.26
14154;DHT22;7157;53.144;7.570;2023-07-08T05:44:53;19.37;74.49
14154;DHT22;7157;53.144;7.570;2023-07-08T05:54:57;19.73;73.71
14154;DHT22;7157;53.144;7.570;2023-07-08T06:05:01;20.11;72.25
14154;DHT22;7157;53.144;7.570;2023-07-08T06:15:05;20.46;70.79
14154;DHT22;7157;53.144;7.570;2023-07-08T06:25:10;20.83;69.96
14154;DHT22;7157;53.144;7.570;2023-07-08T06:35:13;21.07;68.46
14154;DHT22;7157;53.144;7.570;2023-07-08T06:45:17;21.46;67.04
14154;DHT22;7157;53.144;7.570;2023-07-08T06:55:20;21.82;66.55
14154;DHT22;7157;53.144;7.570;2023-07-08T07:05:24;22.32;65.37
14154;DHT22;7157;53.144;7.570;2023-07-08T07:15:27;22.76;63.72
14154;DHT22;7157;53.144;7.570;2023-07-08T07:25:34;23.22;63.18
14154;DHT22;7157;53.144;7.570;2023-07-08T07:35:42;23.55;60.64
14154;DHT22;7157;53.144;7.570;2023-07-08T07:45:49;24.08;59.49
14154;DHT22;7157;53.144;7.570;2023-07-08T07:55:56;24.41;58.04
14154;DHT22;7157;53.144;7.570;2023-07-08T08:06:01;24.77;56.35
14154;DHT22;7157;53.144;7.570;2023-07-08T08:16:04;25.18;55.42
14154;DHT22;7157;53.144;7.570;2023-07-08T08:26:08;25.45;53.56
14154;DHT22;7157;53.144;7.570;2023-07-08T08:36:11;25.91;52.86
14154;DHT22;7157;53.144;7.570;2023-07-08T08:46:25;26.28;51.38
14154;DHT22;7157;53.144;7.570;2023-07-08T08:56:37;26.68;50.28
14154;DHT22;7157;53.144;7.570;2023-07-08T09:06:43;27.02;50.14
14154;DHT22;7157;53.144;7.570;2023-07-08T09:16:52;27.42;49.10
14154;DHT22;7157;53.144;7.570;2023-07-08T09:27:00;27.69;48.09
14154;DHT22;7157;53.144;7.570;2023-07-08T09:37:22;28.10;47.13
14154;DHT22;7157;53.144;7.570;2023-07-08T09:47:28;28.45;46.30
14154;DHT22;7157;53.144;7.570;2023-07-08T09:57:34;28.83;46.49
14154;DHT22;7157;53.144;7.570;2023-07-08T10:07:38;29.07;45.60
14154;DHT22;7157;53.144;7.570;2023-07-08T10:17:41;29.57;44.42
14154;DHT22;7157;53.144;7.570;2023-07-08T10:27:53;29.78;43.61
14154;DHT22;7157;53.144;7.570;2023-07-08T10:38:18;30.19;41.78
14154;DHT22;7157;53.144;7.570;2023-07-08T10:48:41;30.52;42.00
14154;DHT22;7157;53.144;7.570;2023-07-08T10:59:06;30.86;41.90
14154;DHT22;7157;53.144;7.570;2023-07-08T11:09:17;31.09;40.71
14154;DHT22;7157;53.144;7.570;2023-07-08T11:19:26;31.42;40.11
14154;DHT22;7157;53.144;7.570;2023-07-08T11:29:37;32.01;39.80
14154;DHT22;7157;53.144;7.570;2023-07-08T11:39:43;37.31;32.57
14154;DHT22;7157;53.144;7.570;2023-07-08T11:49:48;42.21;21.82
14154;DHT22;7157;53.144;7.570;2023-07-08T12:00:17;44.06;19.65
14154;DHT22;7157;53.144;7.570;2023-07-08T12:10:27;44.10;18.28
14154;DHT22;7157;53.144;7.570;2023-07-08T12:20:32;44.94;16.71
14154;DHT22;7157;53.144;7.570;2023-07-08T12:30:37;43.77;16.45
14154;DHT22;7157;53.144;7.570;2023-07-08T12:40:40;44.05;17.20
14154;DHT22;7157;53.144;7.570;2023-07-08T12:50:45;44.30;16.32
14154;DHT22;7157;53.144;7.570;2023-07-08T13:00:47;43.28;16.67
14154;DHT22;7157;53.144;7.570;2023-07-08T13:10:53;40.03;20.00
14154;DHT22;7157;53.144;7.570;2023-07-08T13:20:58;37.75;23.52
14154;DHT22;7157;53.144;7.570;2023-07-08T13:31:15;36.32;25.63
14154;DHT22;7157;53.144;7.570;2023-07-08T13:41:23;35.56;26.96
14154;DHT22;7157;53.144;7.570;2023-07-08T13:51:29;35.24;28.07
14154;DHT22;7157;53.144;7.570;2023-07-08T14:01:35;35.37;27.13
14154;DHT22;7157;53.144;7.570;2023-07-08T14:11:41;35.05;25.30
14154;DHT22;7157;53.144;7.570;2023-07-08T14:21:44;35.16;25.72
14154;DHT22;7157;53.144;7.570;2023-07-08T14:31:49;35.30;24.87
14154;DHT22;7157;53.144;7.570;2023-07-08T14:41:51;34.94;26.28
14154;DHT22;7157;53.144;7.570;2023-07-08T14:51:55;34.95;25.95
14154;DHT22;7157;53.144;7.570;2023-07-08T15:01:59;34.70;26.49
14154;DHT22;7157;53.144;7.570;2023-07-08T15:12:09;34.73;26.57
14154;DHT22;7157;53.144;7.570;2023-07-08T15:22:12;34.67;26.54
14154;DHT22;7157;53.144;7.570;2023-07-08T15:32:16;34.46;26.57
14154;DHT22;7157;53.144;7.570;2023-07-08T15:42:43;34.29;26.59
14154;DHT22;7157;53.144;7.570;2023-07-08T15:52:48;34.19;26.68
14154;DHT22;7157;53.144;7.570;2023-07-08T16:02:53;33.89;27.81
14154;DHT22;7157;53.144;7.570;2023-07-08T16:12:58;33.67;27.33
14154;DHT22;7157;53.144;7.570;2023-07-08T16:23:01;33.63;27.57
14154;DHT22;7157;53.144;7.570;2023-07-08T16:33:06;33.49;27.94
14154;DHT22;7157;53.144;7.570;2023-07-08T16:43:19;33.33;28.68
14154;DHT22;7157;53.144;7.570;2023-07-08T16:53:23;33.36;28.87
14154;DHT22;7157;53.144;7.570;2023-07-08T17:03:26;33.17;28.71
14154;DHT22;7157;53.144;7.570;2023-07-08T17:13:30;33.00;28.61
14154;DHT22;7157;53.144;7.570;2023-07-08T17:23:33;33.04;29.49
14154;DHT22;7157;53.144;7.570;2023-07-08T17:33:38;33.01;31.41
14154;DHT22;7157;53.144;7.570;2023-07-08T17:43:41;32.76;32.27
14154;DHT22;7157;53.144;7.570;2023-07-08T17:53:45;32.74;32.45
14154;DHT22;7157;53.144;7.570;2023-07-08T18:03:48;32.63;33.15
14154;DHT22;7157;53.144;7.570;2023-07-08T18:13:53;32.24;33.60
14154;DHT22;7157;53.144;7.570;2023-07-08T18:23:56;31.71;34.59
14154;DHT22;7157;53.144;7.570;2023-07-08T18:34:03;31.35;35.60
14154;DHT22;7157;53.144;7.570;2023-07-08T18:44:13;31.00;36.02
14154;DHT22;7157;53.144;7.570;2023-07-08T18:54:20;30.63;37.44
14154;DHT22;7157;53.144;7.570;2023-07-08T19:04:24;30.26;38.54
14154;DHT22;7157;53.144;7.570;2023-07-08T19:14:29;29.86;39.96
14154;DHT22;7157;53.144;7.570;2023-07-08T19:24:32;29.36;41.33
14154;DHT22;7157;53.144;7.570;2023-07-08T19:34:40;29.06;42.15
14154;DHT22;7157;53.144;7.570;2023-07-08T19:44:44;28.61;43.75
14154;DHT22;7157;53.144;7.570;2023-07-08T19:54:48;28.24;44.22
14154;DHT22;7157;53.144;7.570;2023-07-08T20:04:50;27.94;44.45
14154;DHT22;7157;53.144;7.570;2023-07-08T20:14:54;27.78;44.31
14154;DHT22;7157;53.144;7.570;2023-07-08T20:24:57;27.51;44.74
14154;DHT22;7157;53.144;7.570;2023-07-08T20:35:02;27.24;45.64
14154;DHT22;7157;53.144;7.570;2023-07-08T20:45:06;27.05;46.43
14154;DHT22;7157;53.144;7.570;2023-07-08T20:55:11;26.69;47.90
14154;DHT22;7157;53.144;7.570;2023-07-08T21:05:14;26.43;48.67
14154;DHT22;7157;53.144;7.570;2023-07-08T21:15:20;26.17;49.63
14154;DHT22;7157;53.144;7.570;2023-07-08T21:25:25;25.94;50.50
14154;DHT22;7157;53.144;7.570;2023-07-08T21:35:29;25.72;51.77
14154;DHT22;7157;53.144;7.570;2023-07-08T21:45:33;25.49;52.61
14154;DHT22;7157;53.144;7.570;2023-07-08T21:55:38;25.33;53.17
14154;DHT22;7157;53.144;7.570;2023-07-08T22:05:41;25.16;53.93
14154;DHT22;7157;53.144;7.570;2023-07-08T22:15:45;24.99;54.81
14154;DHT22;7157;53.144;7.570;2023-07-08T22:25:48;24.76;55.48
14154;DHT22;7157;53.144;7.570;2023-07-08T22:35:52;24.61;55.76
14154;DHT22;7157;53.144;7.570;2023-07-08T22:45:55;24.45;56.58
14154;DHT22;7157;53.144;7.570;2023-07-08T22:56:00;24.30;57.20
14154;DHT22;7157;53.144;7.570;2023-07-08T23:06:04;24.15;57.35
14154;DHT22;7157;53.144;7.570;2023-07-08T23:16:22;24.02;58.10
14154;DHT22;7157;53.144;7.570;2023-07-08T23:26:29;23.88;58.46
14154;DHT22;7157;53.144;7.570;2023-07-08T23:36:37;23.87;58.39
14154;DHT22;7157;53.144;7.570;2023-07-08T23:46:43;23.70;59.19
14154;DHT22;7157;53.144;7.570;2023-07-08T23:56:49;23.66;59.83
